Time;durP1;ratioP1;P1;durP2;ratioP2;P2;SDS_P1;SDS_P2;PMS_P1;PMS_P2;Temp;Humidity;BMP_temperature;BMP_pressure;BME280_temperature;BME280_humidity;BME280_pressure;Samples;Min_cycle;Max_cycle;Signal;HPM_P1;HPM_P2
2022/06/06 00:05:01;;;;;;;3.50;3.30;;;18.20;99.90;;;;;;10354373;28;20273;-79
2022/06/06 00:10:05;;;;;;;4.27;3.97;;;18.20;99.90;;;;;;10372874;28;20242;-78
2022/06/06 00:15:09;;;;;;;4.17;3.73;;;18.20;99.90;;;;;;10410274;22;20615;-78
2022/06/06 00:20:12;;;;;;;3.70;3.50;;;18.20;99.90;;;;;;10414464;28;20374;-79
2022/06/06 00:25:15;;;;;;;3.60;3.47;;;18.10;99.90;;;;;;10422684;28;20226;-78
2022/06/06 00:30:17;;;;;;;4.03;3.73;;;18.00;99.90;;;;;;10404367;28;20198;-78
2022/06/06 00:35:21;;;;;;;3.90;3.70;;;18.00;99.90;;;;;;10413720;28;20276;-78
2022/06/06 00:40:27;;;;;;;3.90;3.60;;;17.90;99.90;;;;;;10416847;28;20258;-77
2022/06/06 00:45:33;;;;;;;3.63;3.43;;;17.90;99.90;;;;;;10415752;28;20297;-78
2022/06/06 00:50:44;;;;;;;4.00;3.70;;;17.90;99.90;;;;;;10411612;28;20213;-77
2022/06/06 00:55:52;;;;;;;4.00;3.80;;;18.00;99.90;;;;;;10410797;28;20309;-78
2022/06/06 01:00:54;;;;;;;4.30;4.00;;;18.00;99.90;;;;;;10408812;28;20289;-78
2022/06/06 01:06:00;;;;;;;4.70;4.30;;;18.10;99.90;;;;;;10405967;28;20290;-77
2022/06/06 01:11:02;;;;;;;3.97;3.77;;;18.10;99.90;;;;;;10419925;28;20201;-77
2022/06/06 01:16:41;;;;;;;4.27;4.07;;;18.10;99.90;;;;;;10409995;28;20228;-78
2022/06/06 01:22:12;;;;;;;3.80;3.60;;;18.00;99.90;;;;;;10415854;28;20202;-78
2022/06/06 01:27:43;;;;;;;4.13;3.73;;;18.00;99.90;;;;;;10415951;28;20626;-78
2022/06/06 01:32:51;;;;;;;4.30;4.00;;;18.00;99.90;;;;;;10400147;28;20264;-78
2022/06/06 01:37:53;;;;;;;5.20;3.60;;;18.00;99.90;;;;;;10417450;28;20225;-77
2022/06/06 01:42:58;;;;;;;3.60;3.40;;;18.00;99.90;;;;;;10411872;28;20232;-77
2022/06/06 01:48:05;;;;;;;4.57;4.27;;;18.00;99.90;;;;;;10407147;28;20221;-77
2022/06/06 01:53:12;;;;;;;4.77;4.37;;;18.10;99.90;;;;;;10416198;28;20245;-77
2022/06/06 01:58:17;;;;;;;4.60;4.30;;;18.10;99.90;;;;;;10415562;28;20194;-77
2022/06/06 02:03:21;;;;;;;4.80;4.50;;;18.10;99.90;;;;;;10408759;28;20241;-78
2022/06/06 02:08:23;;;;;;;4.10;3.80;;;18.10;99.90;;;;;;10410467;28;20539;-77
2022/06/06 02:13:26;;;;;;;4.20;4.00;;;18.00;99.90;;;;;;10413926;28;20249;-77
2022/06/06 02:18:30;;;;;;;4.20;3.90;;;17.90;99.90;;;;;;10394664;28;20198;-78
2022/06/06 02:23:32;;;;;;;4.63;4.00;;;17.90;99.90;;;;;;10411962;28;20279;-78
2022/06/06 02:28:34;;;;;;;4.23;3.93;;;17.80;99.90;;;;;;10415468;28;20224;-77
2022/06/06 02:33:38;;;;;;;4.50;4.20;;;17.80;99.90;;;;;;10408417;28;20301;-77
2022/06/06 02:38:40;;;;;;;4.57;4.27;;;17.80;99.90;;;;;;10392151;28;20194;-77
2022/06/06 02:43:44;;;;;;;4.57;4.13;;;17.70;99.90;;;;;;10411618;28;20252;-77
2022/06/06 02:48:48;;;;;;;4.93;4.53;;;17.70;99.90;;;;;;10412228;28;20304;-77
2022/06/06 02:53:50;;;;;;;4.63;4.27;;;17.70;99.90;;;;;;10412479;28;20598;-76
2022/06/06 02:58:55;;;;;;;4.50;4.23;;;17.70;99.90;;;;;;10404675;28;20198;-77
2022/06/06 03:03:58;;;;;;;4.10;3.90;;;17.70;99.90;;;;;;10399913;28;20560;-77
2022/06/06 03:09:17;;;;;;;5.17;4.77;;;17.50;99.90;;;;;;10406304;28;20221;-76
2022/06/06 03:14:33;;;;;;;5.63;4.63;;;17.50;99.90;;;;;;10410130;28;20304;-76
2022/06/06 03:25:24;;;;;;;4.83;4.43;;;17.30;99.90;;;;;;10405004;28;20584;-76
2022/06/06 03:30:38;;;;;;;5.10;4.70;;;17.30;99.90;;;;;;10406301;28;20255;-76
2022/06/06 03:35:49;;;;;;;5.30;4.90;;;17.30;99.90;;;;;;10404240;28;20232;-77
2022/06/06 03:41:00;;;;;;;6.33;5.83;;;17.40;99.90;;;;;;10417493;28;20205;-77
2022/06/06 03:46:11;;;;;;;7.20;6.60;;;17.30;99.90;;;;;;10413868;28;20226;-78
2022/06/06 03:51:27;;;;;;;5.30;4.80;;;17.30;99.90;;;;;;10416804;28;20225;-77
2022/06/06 03:56:43;;;;;;;4.60;4.30;;;17.30;99.90;;;;;;10420894;28;20240;-77
2022/06/06 04:01:47;;;;;;;4.60;4.30;;;17.40;99.90;;;;;;10409010;28;20228;-77
2022/06/06 04:06:57;;;;;;;4.33;4.10;;;17.50;99.90;;;;;;10417320;28;20289;-77
2022/06/06 04:12:10;;;;;;;4.67;4.27;;;17.60;99.90;;;;;;10414193;28;20207;-77
2022/06/06 04:17:25;;;;;;;4.60;4.20;;;17.60;99.90;;;;;;10404588;28;20203;-77
2022/06/06 04:22:41;;;;;;;5.27;4.87;;;17.70;99.90;;;;;;10419296;28;20221;-77
2022/06/06 04:27:53;;;;;;;4.90;4.60;;;17.80;99.90;;;;;;10422706;28;20232;-77
2022/06/06 04:33:08;;;;;;;4.67;4.27;;;17.80;99.90;;;;;;10409724;28;20218;-77
2022/06/06 04:38:22;;;;;;;7.83;4.93;;;17.80;99.90;;;;;;10397248;28;20198;-77
2022/06/06 04:43:31;;;;;;;4.83;4.53;;;17.80;99.90;;;;;;10415947;28;20210;-77
2022/06/06 04:48:36;;;;;;;4.17;3.87;;;17.90;99.90;;;;;;10416064;28;20616;-77
2022/06/06 04:53:43;;;;;;;4.47;4.17;;;18.00;99.90;;;;;;10418245;28;20352;-77
2022/06/06 04:58:48;;;;;;;4.30;4.10;;;18.00;99.90;;;;;;10411593;28;20569;-77
2022/06/06 05:03:50;;;;;;;4.37;4.07;;;18.30;99.90;;;;;;10407528;28;20229;-77
2022/06/06 05:09:20;;;;;;;4.67;4.30;;;18.40;99.90;;;;;;10417092;28;20256;-77
2022/06/06 05:14:36;;;;;;;4.03;3.83;;;18.50;99.90;;;;;;10414725;28;20425;-77
2022/06/06 05:19:50;;;;;;;4.20;3.90;;;18.60;99.90;;;;;;10416938;28;20205;-77
2022/06/06 05:25:16;;;;;;;5.20;4.70;;;18.80;99.90;;;;;;10412075;28;20225;-78
2022/06/06 05:30:20;;;;;;;4.10;3.90;;;18.90;99.90;;;;;;10412630;28;20202;-77
2022/06/06 05:35:54;;;;;;;4.27;3.97;;;19.10;99.90;;;;;;10412201;28;20224;-77
2022/06/06 05:41:05;;;;;;;4.27;3.77;;;19.30;99.90;;;;;;10409957;28;20210;-77
2022/06/06 05:46:21;;;;;;;3.90;3.60;;;19.40;99.90;;;;;;10409824;28;20256;-77
2022/06/06 05:51:35;;;;;;;3.93;3.73;;;19.40;99.90;;;;;;10411475;28;20197;-77
2022/06/06 05:56:54;;;;;;;4.73;4.13;;;19.60;99.90;;;;;;10411412;28;20237;-77
2022/06/06 06:02:15;;;;;;;4.43;4.13;;;19.80;99.90;;;;;;10407869;28;20721;-77
2022/06/06 06:07:26;;;;;;;4.50;4.20;;;19.90;99.90;;;;;;10414543;28;20304;-77
2022/06/06 06:12:53;;;;;;;4.80;4.50;;;20.00;99.90;;;;;;10411436;28;20264;-77
2022/06/06 06:17:57;;;;;;;4.70;4.40;;;20.20;99.90;;;;;;10412505;28;20200;-78
2022/06/06 06:23:03;;;;;;;5.00;4.60;;;20.50;99.90;;;;;;10412894;28;20225;-78
2022/06/06 06:28:10;;;;;;;5.33;4.93;;;20.60;99.90;;;;;;10416240;28;20656;-78
2022/06/06 06:33:26;;;;;;;5.00;4.60;;;20.70;99.90;;;;;;10405752;28;20241;-79
2022/06/06 06:38:57;;;;;;;5.90;4.70;;;20.90;99.90;;;;;;10412394;28;20229;-78
2022/06/06 06:44:08;;;;;;;4.67;4.37;;;20.90;99.90;;;;;;10409614;28;20304;-78
2022/06/06 06:49:27;;;;;;;4.93;4.53;;;21.00;99.90;;;;;;10411404;28;20249;-79
2022/06/06 06:55:03;;;;;;;4.40;4.10;;;21.20;99.90;;;;;;10402896;28;20222;-78
2022/06/06 07:00:12;;;;;;;4.30;4.10;;;21.20;99.90;;;;;;10410292;28;20202;-78
2022/06/06 07:10:59;;;;;;;4.80;4.33;;;21.50;99.90;;;;;;10409345;28;20671;-78
2022/06/06 07:16:12;;;;;;;4.90;4.50;;;21.80;99.90;;;;;;10413241;28;20275;-77
2022/06/06 07:21:16;;;;;;;4.40;4.20;;;22.10;99.90;;;;;;10413820;28;20202;-77
2022/06/06 07:26:18;;;;;;;4.40;4.20;;;22.30;99.90;;;;;;10410292;28;20229;-77
2022/06/06 07:31:28;;;;;;;4.60;4.20;;;22.60;99.90;;;;;;10406109;28;20288;-78
2022/06/06 07:36:45;;;;;;;4.27;4.07;;;22.70;99.90;;;;;;10402413;28;20214;-77
2022/06/06 07:42:01;;;;;;;4.00;3.70;;;22.60;99.90;;;;;;10407923;28;20316;-77
2022/06/06 07:47:11;;;;;;;4.60;4.30;;;22.60;99.90;;;;;;10409937;28;20335;-77
2022/06/06 07:52:21;;;;;;;4.70;4.40;;;22.70;99.90;;;;;;10405132;28;20212;-77
2022/06/06 07:57:32;;;;;;;4.07;3.80;;;23.00;99.90;;;;;;10402481;28;20688;-77
2022/06/06 08:02:48;;;;;;;4.13;3.83;;;23.80;99.90;;;;;;10409135;28;20300;-77
2022/06/06 08:08:02;;;;;;;4.20;3.80;;;24.40;99.90;;;;;;10406407;28;20233;-78
2022/06/06 08:13:22;;;;;;;3.70;3.40;;;24.60;99.70;;;;;;10400231;28;20578;-77
2022/06/06 08:18:59;;;;;;;3.80;3.50;;;24.50;98.80;;;;;;10408236;28;20189;-78
2022/06/06 08:24:05;;;;;;;3.73;3.53;;;25.00;97.70;;;;;;10414145;28;20328;-77
2022/06/06 08:29:08;;;;;;;3.50;3.30;;;25.80;96.30;;;;;;10417557;28;20245;-77
2022/06/06 08:34:12;;;;;;;3.47;3.27;;;26.40;93.10;;;;;;10414207;28;20632;-77
2022/06/06 08:39:23;;;;;;;3.43;3.23;;;26.80;91.90;;;;;;10410228;28;20193;-77
2022/06/06 08:44:37;;;;;;;4.17;3.07;;;27.20;89.80;;;;;;10414135;28;20226;-77
2022/06/06 08:55:48;;;;;;;3.60;3.40;;;27.80;84.00;;;;;;10416017;28;20226;-77
2022/06/06 09:00:57;;;;;;;3.93;2.90;;;27.80;82.40;;;;;;10415866;28;20216;-77
2022/06/06 09:06:36;;;;;;;3.43;3.23;;;27.70;82.20;;;;;;10398145;28;20240;-77
2022/06/06 09:12:45;;;;;;;3.10;2.90;;;27.60;86.50;;;;;;10412334;28;20201;-78
2022/06/06 09:18:09;;;;;;;2.70;2.60;;;28.00;82.20;;;;;;10128634;29;20213;-77
2022/06/06 09:23:37;;;;;;;6.20;3.07;;;28.40;77.10;;;;;;10374914;28;20308;-77
2022/06/06 09:29:27;;;;;;;2.87;2.73;;;28.20;73.50;;;;;;10411843;28;20217;-78
2022/06/06 09:35:02;;;;;;;3.20;3.00;;;28.10;76.30;;;;;;10366339;28;20317;-78
2022/06/06 09:40:17;;;;;;;2.93;2.83;;;28.70;73.40;;;;;;10395878;28;20577;-77
2022/06/06 09:45:31;;;;;;;2.77;2.57;;;29.80;73.50;;;;;;10414987;28;20221;-77
2022/06/06 09:51:02;;;;;;;2.90;2.67;;;31.30;70.00;;;;;;10416919;28;20670;-78
2022/06/06 10:02:24;;;;;;;2.83;2.67;;;31.40;64.80;;;;;;10410591;28;20226;-78
2022/06/06 10:08:11;;;;;;;3.00;2.60;;;31.90;65.90;;;;;;10406859;28;20276;-78
2022/06/06 10:13:28;;;;;;;3.50;2.67;;;31.60;63.10;;;;;;10393927;28;20769;-77
2022/06/06 10:18:43;;;;;;;3.10;2.90;;;31.00;59.70;;;;;;10407125;28;20285;-78
2022/06/06 10:23:58;;;;;;;4.40;3.10;;;30.30;61.60;;;;;;10408385;28;20760;-78
2022/06/06 10:35:14;;;;;;;3.20;2.90;;;28.70;68.50;;;;;;10341937;28;20238;-77
2022/06/06 10:40:31;;;;;;;3.57;3.07;;;28.20;68.70;;;;;;10412388;28;20248;-77
2022/06/06 10:45:37;;;;;;;3.40;3.10;;;27.50;66.30;;;;;;10404693;28;20232;-77
2022/06/06 10:56:37;;;;;;;19.87;13.13;;;26.80;75.00;;;;;;10409745;28;20240;-77
2022/06/06 11:02:12;;;;;;;4.53;4.13;;;26.50;72.80;;;;;;10407989;28;20343;-77
2022/06/06 11:07:52;;;;;;;3.73;3.47;;;26.20;77.40;;;;;;10385164;28;20226;-78
2022/06/06 11:13:27;;;;;;;3.10;3.00;;;26.00;76.00;;;;;;10405697;28;20240;-78
2022/06/06 11:18:53;;;;;;;3.83;2.80;;;26.00;74.20;;;;;;10407817;28;20248;-77
2022/06/06 11:24:03;;;;;;;3.47;3.20;;;26.00;74.30;;;;;;10410683;28;20590;-77
2022/06/06 11:29:22;;;;;;;3.63;3.33;;;26.20;75.70;;;;;;10408863;28;20215;-77
2022/06/06 11:35:10;;;;;;;3.37;3.07;;;26.30;78.10;;;;;;10399641;28;20609;-77
2022/06/06 11:40:45;;;;;;;3.30;3.10;;;26.10;73.70;;;;;;10406721;28;20253;-77
2022/06/06 11:46:25;;;;;;;3.10;3.00;;;25.80;74.60;;;;;;10411985;28;20237;-78
2022/06/06 11:52:00;;;;;;;3.27;2.97;;;25.60;76.90;;;;;;10378028;28;20298;-79
2022/06/06 11:57:43;;;;;;;2.90;2.80;;;25.70;73.80;;;;;;10407601;28;20194;-78
2022/06/06 12:03:39;;;;;;;4.50;3.47;;;25.70;77.50;;;;;;10418583;28;20637;-78
2022/06/06 12:09:02;;;;;;;3.50;3.30;;;25.60;76.30;;;;;;10419667;28;20221;-78
2022/06/06 12:14:37;;;;;;;3.03;2.87;;;25.70;74.00;;;;;;10420888;28;20233;-78
2022/06/06 12:20:09;;;;;;;2.80;2.70;;;25.60;73.20;;;;;;10414560;28;20228;-78
2022/06/06 12:25:41;;;;;;;3.47;3.03;;;25.30;77.20;;;;;;10410517;28;20226;-78
2022/06/06 12:31:04;;;;;;;3.40;3.20;;;25.10;74.90;;;;;;10410969;28;20217;-78
2022/06/06 12:36:16;;;;;;;2.97;2.80;;;24.90;77.40;;;;;;10411776;28;20241;-78
2022/06/06 12:41:30;;;;;;;3.73;3.17;;;25.00;74.50;;;;;;10420381;28;20194;-78
2022/06/06 12:47:12;;;;;;;3.27;3.07;;;25.00;71.20;;;;;;10416897;28;20224;-78
2022/06/06 12:52:36;;;;;;;3.17;3.07;;;24.70;72.50;;;;;;10374403;28;20198;-78
2022/06/06 12:57:49;;;;;;;3.63;3.13;;;24.50;70.50;;;;;;10414230;28;20208;-77
2022/06/06 13:03:06;;;;;;;2.53;2.43;;;24.30;73.40;;;;;;10414534;28;20220;-78
2022/06/06 13:08:25;;;;;;;3.00;2.80;;;24.30;73.50;;;;;;10409411;28;20321;-78
2022/06/06 13:13:48;;;;;;;3.03;2.83;;;24.50;75.00;;;;;;10412770;28;20444;-78
2022/06/06 13:19:06;;;;;;;3.17;3.00;;;24.70;75.20;;;;;;10415058;28;20206;-77
2022/06/06 13:24:30;;;;;;;3.17;2.97;;;24.50;74.60;;;;;;10413941;28;20222;-77
2022/06/06 13:29:35;;;;;;;3.60;3.33;;;24.30;76.60;;;;;;10414037;28;20531;-77
2022/06/06 13:35:01;;;;;;;3.17;2.97;;;24.20;76.10;;;;;;10408467;28;20225;-77
2022/06/06 13:40:24;;;;;;;3.13;2.93;;;24.00;76.40;;;;;;10411315;28;20206;-77
2022/06/06 13:45:31;;;;;;;3.40;3.23;;;23.80;75.50;;;;;;10417830;28;20218;-77
2022/06/06 13:50:39;;;;;;;2.90;2.80;;;23.60;73.80;;;;;;10413499;28;20324;-77
2022/06/06 13:55:43;;;;;;;2.93;2.73;;;23.50;78.90;;;;;;10413770;28;20298;-77
2022/06/06 14:00:56;;;;;;;2.83;2.73;;;23.40;80.70;;;;;;10400312;28;20693;-77
2022/06/06 14:06:09;;;;;;;3.13;3.03;;;23.30;79.40;;;;;;10406766;28;20213;-77
2022/06/06 14:11:18;;;;;;;2.73;2.63;;;23.30;75.50;;;;;;10410030;28;20693;-77
2022/06/06 14:16:28;;;;;;;3.30;3.10;;;23.30;79.90;;;;;;10412165;28;20563;-78
2022/06/06 14:21:33;;;;;;;3.73;3.50;;;23.40;82.30;;;;;;10416494;28;20198;-77
2022/06/06 14:26:37;;;;;;;3.70;3.40;;;23.40;85.30;;;;;;10409296;28;20226;-77
2022/06/06 14:31:44;;;;;;;3.27;3.07;;;23.40;82.60;;;;;;10409112;28;20202;-77
2022/06/06 14:36:47;;;;;;;3.20;3.00;;;23.40;83.70;;;;;;10406178;28;20222;-77
2022/06/06 14:41:51;;;;;;;3.30;3.10;;;23.50;83.50;;;;;;10411291;28;20198;-78
2022/06/06 14:47:03;;;;;;;3.73;3.33;;;23.60;79.80;;;;;;10417408;28;20574;-77
2022/06/06 14:52:16;;;;;;;3.10;2.90;;;23.80;78.80;;;;;;10410153;28;20201;-78
2022/06/06 14:57:20;;;;;;;3.07;2.87;;;24.00;84.50;;;;;;10411940;28;20194;-77
2022/06/06 15:02:24;;;;;;;3.03;2.83;;;24.10;82.20;;;;;;10412772;28;20232;-77
2022/06/06 15:07:40;;;;;;;3.20;3.00;;;24.00;78.60;;;;;;10414224;28;20214;-77
2022/06/06 15:12:44;;;;;;;5.03;4.63;;;23.90;77.90;;;;;;10411305;28;20282;-77
2022/06/06 15:17:50;;;;;;;5.80;3.57;;;23.80;77.10;;;;;;10412013;28;20465;-77
2022/06/06 15:22:54;;;;;;;3.60;3.30;;;23.80;78.40;;;;;;10410943;28;20306;-77
2022/06/06 15:28:13;;;;;;;2.97;2.77;;;23.90;76.60;;;;;;10410069;28;20253;-77
2022/06/06 15:33:21;;;;;;;3.03;2.83;;;23.90;82.80;;;;;;10404277;28;20676;-77
2022/06/06 15:38:41;;;;;;;3.20;2.90;;;23.80;79.50;;;;;;10407933;28;20572;-77
2022/06/06 15:43:53;;;;;;;3.77;3.47;;;23.70;80.30;;;;;;10400619;28;20670;-77
2022/06/06 15:49:09;;;;;;;3.27;3.03;;;23.70;80.10;;;;;;10411371;28;20573;-78
2022/06/06 15:54:30;;;;;;;2.70;2.60;;;23.60;81.10;;;;;;10412288;28;20217;-77
2022/06/06 16:00:15;;;;;;;3.27;3.07;;;23.60;81.70;;;;;;10405339;28;20320;-77
2022/06/06 16:05:21;;;;;;;4.67;3.90;;;23.50;80.20;;;;;;10406054;28;20221;-77
2022/06/06 16:10:29;;;;;;;3.77;3.50;;;23.50;82.40;;;;;;10407665;28;20229;-77
2022/06/06 16:15:37;;;;;;;3.20;3.00;;;23.40;79.90;;;;;;10400586;28;20288;-77
2022/06/06 16:20:44;;;;;;;3.03;2.83;;;23.40;80.90;;;;;;10410391;28;20261;-77
2022/06/06 16:25:52;;;;;;;3.27;3.07;;;23.40;82.30;;;;;;10404709;28;20713;-77
2022/06/06 16:30:58;;;;;;;3.93;3.70;;;23.40;82.30;;;;;;10407707;28;20301;-77
2022/06/06 16:36:06;;;;;;;3.20;3.10;;;23.40;82.80;;;;;;10405893;28;20234;-77
2022/06/06 16:52:50;;;;;;;3.63;3.43;;;23.00;82.40;;;;;;10416577;28;20233;-77
2022/06/06 16:58:02;;;;;;;3.70;3.33;;;23.00;84.20;;;;;;10420723;28;20277;-77
2022/06/06 17:03:24;;;;;;;3.43;3.23;;;22.90;80.70;;;;;;10394324;28;20611;-77
2022/06/06 17:08:46;;;;;;;3.37;3.17;;;22.80;82.50;;;;;;10418917;28;20206;-77
2022/06/06 17:13:50;;;;;;;3.00;2.80;;;22.80;83.90;;;;;;10418638;28;20234;-77
2022/06/06 17:19:02;;;;;;;2.97;2.87;;;22.70;83.90;;;;;;10413515;28;20277;-77
2022/06/06 17:24:25;;;;;;;2.80;2.60;;;22.70;83.60;;;;;;10412777;28;20760;-78
2022/06/06 17:29:51;;;;;;;3.57;3.27;;;22.70;84.20;;;;;;10420543;28;20249;-77
2022/06/06 17:35:20;;;;;;;3.47;3.17;;;22.70;85.10;;;;;;10415618;28;20653;-77
2022/06/06 17:40:38;;;;;;;3.00;2.80;;;22.60;86.20;;;;;;10410164;28;20229;-77
2022/06/06 17:45:57;;;;;;;4.23;3.93;;;22.50;85.30;;;;;;10400108;28;20513;-77
2022/06/06 17:51:09;;;;;;;3.50;3.30;;;22.50;89.70;;;;;;10410859;28;20214;-77
2022/06/06 17:56:22;;;;;;;3.20;3.00;;;22.40;87.50;;;;;;10410959;28;20301;-78
2022/06/06 18:01:57;;;;;;;3.10;2.90;;;22.40;88.60;;;;;;10400912;28;20869;-77
2022/06/06 18:07:26;;;;;;;2.60;2.50;;;22.20;83.60;;;;;;10397391;28;20248;-77
2022/06/06 18:12:47;;;;;;;3.70;3.40;;;22.10;82.70;;;;;;10410189;28;20668;-77
2022/06/06 18:17:53;;;;;;;2.90;2.70;;;22.00;82.90;;;;;;10412148;28;20208;-77
2022/06/06 18:22:58;;;;;;;3.33;2.90;;;21.90;86.00;;;;;;10412529;28;20249;-77
2022/06/06 18:28:01;;;;;;;2.67;2.57;;;21.90;85.10;;;;;;10407644;28;20244;-77
2022/06/06 18:33:22;;;;;;;5.87;2.97;;;21.80;86.00;;;;;;10393466;28;20422;-77
2022/06/06 18:38:32;;;;;;;6.03;3.30;;;21.90;90.20;;;;;;10410879;28;20579;-77
2022/06/06 18:43:36;;;;;;;3.83;2.43;;;21.80;85.40;;;;;;10414930;28;20221;-77
2022/06/06 18:48:40;;;;;;;3.00;2.80;;;21.80;87.80;;;;;;10417006;28;20287;-77
2022/06/06 18:53:45;;;;;;;2.73;2.57;;;21.80;90.10;;;;;;10405965;28;20232;-77
2022/06/06 18:58:51;;;;;;;2.63;2.53;;;21.80;83.30;;;;;;10409013;28;20201;-77
2022/06/06 19:03:56;;;;;;;2.93;2.73;;;21.70;83.40;;;;;;10408623;28;20221;-77
2022/06/06 19:09:02;;;;;;;2.93;2.73;;;21.70;90.10;;;;;;10408278;28;20217;-77
2022/06/06 19:14:14;;;;;;;3.00;2.80;;;21.70;92.40;;;;;;10408499;28;20241;-78
2022/06/06 19:19:22;;;;;;;2.90;2.70;;;21.70;91.70;;;;;;10406332;28;20227;-77
2022/06/06 19:24:27;;;;;;;2.57;2.47;;;21.60;91.10;;;;;;10406463;28;20226;-77
2022/06/06 19:29:31;;;;;;;3.60;2.73;;;21.60;84.00;;;;;;10407215;28;20576;-77
2022/06/06 19:34:35;;;;;;;2.80;2.60;;;21.60;89.90;;;;;;10391372;28;20763;-77
2022/06/06 19:39:39;;;;;;;4.43;4.10;;;21.50;87.90;;;;;;10412955;28;20294;-77
2022/06/06 19:44:41;;;;;;;3.20;3.00;;;21.50;92.20;;;;;;10405974;28;20752;-77
2022/06/06 19:49:46;;;;;;;4.40;3.73;;;21.50;92.30;;;;;;10407911;28;20237;-77
2022/06/06 19:54:56;;;;;;;5.07;3.10;;;21.50;87.50;;;;;;10390896;28;20300;-77
2022/06/06 20:00:06;;;;;;;3.17;2.97;;;21.40;85.60;;;;;;10408581;28;20205;-77
2022/06/06 20:05:20;;;;;;;2.73;2.50;;;21.30;86.90;;;;;;10403068;28;20223;-77
2022/06/06 20:10:31;;;;;;;2.80;2.70;;;21.30;90.80;;;;;;10406612;28;20222;-77
2022/06/06 20:15:37;;;;;;;2.77;2.60;;;21.30;91.50;;;;;;10406030;28;20226;-77
2022/06/06 20:20:46;;;;;;;3.20;2.97;;;21.30;90.90;;;;;;10413265;28;20631;-77
2022/06/06 20:25:52;;;;;;;3.10;3.00;;;21.30;91.00;;;;;;10414778;28;20209;-77
2022/06/06 20:36:35;;;;;;;2.90;2.70;;;21.20;91.90;;;;;;10409716;28;20222;-76
2022/06/06 20:41:42;;;;;;;2.87;2.67;;;21.20;91.40;;;;;;10412043;28;20193;-76
2022/06/06 20:46:48;;;;;;;4.73;4.20;;;21.10;90.90;;;;;;10412212;28;20637;-76
2022/06/06 20:51:53;;;;;;;2.87;2.77;;;21.20;92.30;;;;;;10413519;28;20321;-76
2022/06/06 20:57:26;;;;;;;4.43;2.57;;;21.20;92.40;;;;;;10409169;28;20229;-78
2022/06/06 21:02:28;;;;;;;2.80;2.63;;;21.20;91.80;;;;;;10404298;28;20229;-76
2022/06/06 21:07:32;;;;;;;5.80;3.20;;;21.10;90.90;;;;;;10411263;28;20209;-77
2022/06/06 21:12:38;;;;;;;2.90;2.70;;;21.00;88.70;;;;;;10411861;28;20292;-76
2022/06/06 21:17:44;;;;;;;4.13;2.77;;;21.00;89.80;;;;;;10406667;28;20208;-76
2022/06/06 21:22:49;;;;;;;3.00;2.90;;;21.00;90.90;;;;;;10406152;28;20233;-78
2022/06/06 21:27:52;;;;;;;3.53;2.70;;;21.10;91.70;;;;;;10400922;28;20272;-76
2022/06/06 21:32:55;;;;;;;3.13;2.83;;;21.10;90.80;;;;;;10408872;28;20300;-76
2022/06/06 21:37:57;;;;;;;2.80;2.70;;;21.10;91.00;;;;;;10411722;28;20240;-76
2022/06/06 21:43:01;;;;;;;2.97;2.77;;;21.00;90.10;;;;;;10412779;28;20218;-76
2022/06/06 21:48:04;;;;;;;3.20;2.70;;;20.90;90.20;;;;;;10407263;28;20736;-76
2022/06/06 21:53:06;;;;;;;3.10;2.77;;;20.90;90.40;;;;;;10411734;28;20249;-76
2022/06/06 21:58:10;;;;;;;2.73;2.63;;;20.90;90.20;;;;;;10408906;28;20682;-76
2022/06/06 22:03:13;;;;;;;2.83;2.73;;;20.90;92.30;;;;;;10407399;28;20221;-76
2022/06/06 22:08:15;;;;;;;2.87;2.67;;;20.90;93.20;;;;;;10411037;28;20214;-76
2022/06/06 22:13:19;;;;;;;3.00;2.80;;;20.80;91.80;;;;;;10407410;28;20775;-76
2022/06/06 22:18:21;;;;;;;2.70;2.60;;;20.80;91.00;;;;;;10408271;28;20634;-76
2022/06/06 22:23:23;;;;;;;3.10;2.90;;;20.80;93.20;;;;;;10408078;28;20309;-77
2022/06/06 22:28:27;;;;;;;2.80;2.70;;;20.80;93.00;;;;;;10410461;28;20213;-76
2022/06/06 22:33:29;;;;;;;2.87;2.77;;;20.90;93.80;;;;;;10408724;28;20574;-78
2022/06/06 22:38:31;;;;;;;3.20;3.00;;;20.90;95.10;;;;;;10408928;28;20638;-78
2022/06/06 22:43:35;;;;;;;2.70;2.50;;;20.80;93.30;;;;;;10410235;28;20304;-78
2022/06/06 22:48:37;;;;;;;3.10;2.90;;;20.80;94.20;;;;;;10413552;28;20733;-78
2022/06/06 22:53:41;;;;;;;2.80;2.70;;;20.80;94.30;;;;;;10416778;28;20222;-78
2022/06/06 22:58:45;;;;;;;4.43;2.70;;;20.80;93.70;;;;;;10417568;28;20191;-78
2022/06/06 23:03:47;;;;;;;5.23;2.20;;;20.80;93.30;;;;;;10407198;28;20225;-78
2022/06/06 23:08:49;;;;;;;3.23;2.33;;;20.70;92.00;;;;;;10408777;28;20733;-78
2022/06/06 23:13:52;;;;;;;2.50;2.40;;;20.70;89.20;;;;;;10409787;28;20225;-78
2022/06/06 23:18:55;;;;;;;2.40;2.30;;;20.70;91.60;;;;;;10409763;28;20311;-78
2022/06/06 23:23:57;;;;;;;2.67;2.57;;;20.70;92.20;;;;;;10405276;28;20730;-79
2022/06/06 23:29:01;;;;;;;2.47;2.37;;;20.70;91.40;;;;;;10398000;28;20210;-78
2022/06/06 23:34:05;;;;;;;2.30;2.20;;;20.70;91.80;;;;;;10412608;28;20224;-78
2022/06/06 23:39:11;;;;;;;2.70;2.50;;;20.70;93.60;;;;;;10414175;28;20202;-78
2022/06/06 23:49:35;;;;;;;2.70;2.50;;;20.70;92.90;;;;;;10410932;28;20244;-78
2022/06/06 23:54:38;;;;;;;2.30;2.20;;;20.70;94.30;;;;;;10416276;28;20222;-78
2022/06/06 23:59:43;;;;;;;2.47;2.37;;;20.70;93.00;;;;;;10419403;28;20229;-78
